Time;durP1;ratioP1;P1;durP2;ratioP2;P2;SDS_P1;SDS_P2;PMS_P1;PMS_P2;Temp;Humidity;BMP_temperature;BMP_pressure;BME280_temperature;BME280_humidity;BME280_pressure;Samples;Min_cycle;Max_cycle;Signal;HPM_P1;HPM_P2
2022/04/19 00:00:20;;;;;;;14.20;10.43;;;;;;;9.59;53.38;101395.25;5063376;28;20482;-80
2022/04/19 00:02:46;;;;;;;13.85;10.60;;;;;;;9.52;53.49;101390.16;5064681;28;20468;-80
2022/04/19 00:05:11;;;;;;;17.80;11.70;;;;;;;9.46;53.18;101392.81;5068101;28;20095;-79
2022/04/19 00:07:37;;;;;;;13.50;10.65;;;;;;;9.39;54.39;101391.19;5063103;28;20111;-80
2022/04/19 00:10:05;;;;;;;14.15;10.32;;;;;;;9.31;54.47;101388.66;5064464;28;20025;-80
2022/04/19 00:12:30;;;;;;;13.50;9.70;;;;;;;9.24;55.09;101390.47;5060781;28;20024;-80
2022/04/19 00:14:55;;;;;;;13.68;10.07;;;;;;;9.16;55.70;101384.50;5062187;28;20033;-79
2022/04/19 00:17:21;;;;;;;13.43;9.38;;;;;;;9.05;57.04;101387.22;5062545;28;20021;-80
2022/04/19 00:19:46;;;;;;;11.57;8.95;;;;;;;8.98;57.65;101384.72;5059720;28;20049;-80
2022/04/19 00:22:12;;;;;;;12.82;9.48;;;;;;;8.92;57.60;101383.88;5056858;28;20100;-80
2022/04/19 00:24:38;;;;;;;14.50;9.52;;;;;;;8.91;57.21;101389.09;5065185;28;20052;-80
2022/04/19 00:27:03;;;;;;;16.38;9.45;;;;;;;8.89;57.19;101394.28;5060848;28;20020;-80
2022/04/19 00:29:29;;;;;;;17.27;9.38;;;;;;;8.83;57.33;101389.19;5065784;28;20111;-80
2022/04/19 00:31:54;;;;;;;14.23;10.40;;;;;;;8.81;57.10;101391.78;5062284;28;20035;-80
2022/04/19 00:34:19;;;;;;;17.17;10.50;;;;;;;8.75;56.87;101383.19;5060393;28;20111;-79
2022/04/19 00:36:44;;;;;;;14.88;10.52;;;;;;;8.71;56.73;101381.53;5057524;28;20040;-80
2022/04/19 00:39:10;;;;;;;16.23;11.48;;;;;;;8.68;56.67;101377.19;5061466;28;20072;-80
2022/04/19 00:41:35;;;;;;;15.82;10.95;;;;;;;8.70;56.80;101374.59;5064901;28;20499;-80
2022/04/19 00:44:00;;;;;;;14.90;10.90;;;;;;;8.69;57.28;101375.47;5064664;28;20017;-80
2022/04/19 00:46:26;;;;;;;17.77;10.57;;;;;;;8.68;58.02;101374.59;5061331;28;20024;-80
2022/04/19 00:48:52;;;;;;;14.25;11.40;;;;;;;8.65;57.56;101375.50;5066764;28;20151;-79
2022/04/19 00:51:18;;;;;;;16.77;10.98;;;;;;;8.60;57.86;101382.47;5049152;28;20033;-80
2022/04/19 00:53:47;;;;;;;15.07;10.52;;;;;;;8.53;57.72;101383.41;5066733;28;20063;-80
2022/04/19 00:56:12;;;;;;;13.73;10.32;;;;;;;8.50;57.48;101383.41;5062565;28;20365;-79
2022/04/19 00:58:38;;;;;;;15.13;10.77;;;;;;;8.49;56.90;101381.69;5064599;28;20495;-79
2022/04/19 01:01:03;;;;;;;14.35;9.93;;;;;;;8.48;56.45;101382.56;5060466;28;20177;-79
2022/04/19 01:03:28;;;;;;;14.32;9.93;;;;;;;8.44;57.16;101378.25;5059782;28;20159;-79
2022/04/19 01:05:55;;;;;;;17.20;10.75;;;;;;;8.44;56.76;101383.44;5062127;28;20105;-80
2022/04/19 01:08:22;;;;;;;14.40;10.73;;;;;;;8.38;57.33;101383.47;5063018;28;20057;-79
2022/04/19 01:10:48;;;;;;;15.27;10.32;;;;;;;8.32;57.33;101380.06;5060517;28;20020;-79
2022/04/19 01:13:17;;;;;;;15.23;10.43;;;;;;;8.28;58.48;101377.53;5063480;28;20031;-79
2022/04/19 01:15:47;;;;;;;14.10;9.40;;;;;;;8.26;57.53;101376.66;5060779;28;20028;-79
2022/04/19 01:18:13;;;;;;;13.77;10.25;;;;;;;8.23;56.97;101374.94;5059264;28;20082;-79
2022/04/19 01:20:39;;;;;;;14.75;10.32;;;;;;;8.24;57.04;101376.66;5058892;28;20495;-79
2022/04/19 01:23:05;;;;;;;14.20;10.63;;;;;;;8.22;56.78;101378.41;5054054;28;20063;-79
2022/04/19 01:25:30;;;;;;;16.88;11.40;;;;;;;8.22;57.60;101373.22;5063062;28;20467;-79
2022/04/19 01:27:55;;;;;;;15.05;10.25;;;;;;;8.17;59.32;101372.41;5062653;28;20115;-79
2022/04/19 01:30:21;;;;;;;13.32;10.13;;;;;;;8.13;58.77;101373.28;5059892;28;20073;-79
2022/04/19 01:32:46;;;;;;;14.90;10.65;;;;;;;8.10;58.51;101378.50;5062795;28;20032;-79
2022/04/19 01:35:15;;;;;;;14.23;9.50;;;;;;;8.07;59.29;101365.56;5057957;28;20028;-79
2022/04/19 01:37:49;;;;;;;12.90;9.43;;;;;;;8.04;58.70;101364.69;5063168;28;20035;-79
2022/04/19 01:40:17;;;;;;;11.57;8.75;;;;;;;8.02;60.35;101365.59;5063616;28;20449;-79
2022/04/19 01:42:50;;;;;;;12.48;9.40;;;;;;;7.97;58.66;101368.22;5060033;28;20494;-79
2022/04/19 01:45:17;;;;;;;15.98;9.90;;;;;;;7.96;57.75;101366.50;5057857;28;20071;-79
2022/04/19 01:47:43;;;;;;;18.67;11.00;;;;;;;7.95;57.87;101366.50;5061295;28;20039;-79
2022/04/19 01:50:10;;;;;;;15.10;11.15;;;;;;;7.88;58.34;101356.19;5059702;28;20037;-79
2022/04/19 01:52:40;;;;;;;15.05;10.57;;;;;;;7.85;59.42;101357.94;5060173;28;20154;-80
2022/04/19 01:55:08;;;;;;;13.95;10.00;;;;;;;7.81;59.48;101353.66;5062408;28;20103;-79
2022/04/19 01:57:34;;;;;;;15.52;9.77;;;;;;;7.78;59.65;101358.84;5055265;28;20037;-79
2022/04/19 02:00:00;;;;;;;12.90;9.45;;;;;;;7.74;60.07;101358.84;5061660;28;20111;-79
2022/04/19 02:02:26;;;;;;;14.18;9.50;;;;;;;7.72;59.63;101354.56;5061971;28;20024;-79
2022/04/19 02:04:51;;;;;;;13.90;10.20;;;;;;;7.72;58.61;101359.72;5060422;28;20084;-79
2022/04/19 02:07:17;;;;;;;17.40;10.05;;;;;;;7.67;60.01;101348.53;5059785;28;20063;-79
2022/04/19 02:09:42;;;;;;;13.48;9.75;;;;;;;7.63;59.87;101352.88;5061917;28;20082;-79
2022/04/19 02:12:08;;;;;;;15.38;10.32;;;;;;;7.59;60.50;101351.16;5064006;28;20048;-79
2022/04/19 02:14:34;;;;;;;13.65;10.05;;;;;;;7.54;60.81;101350.31;5062414;28;20498;-79
2022/04/19 02:16:59;;;;;;;15.57;9.48;;;;;;;7.52;61.17;101347.75;5064034;28;20032;-79
2022/04/19 02:19:25;;;;;;;12.95;10.02;;;;;;;7.50;60.57;101343.44;5061582;28;20055;-79
2022/04/19 02:21:50;;;;;;;13.68;10.10;;;;;;;7.43;60.06;101338.28;5058774;28;20471;-79
2022/04/19 02:24:16;;;;;;;13.32;9.70;;;;;;;7.39;60.63;101341.75;5056972;28;20077;-79
2022/04/19 02:26:42;;;;;;;15.18;10.25;;;;;;;7.34;61.02;101338.34;5059295;28;20028;-79
2022/04/19 02:29:07;;;;;;;14.27;9.82;;;;;;;7.31;60.98;101346.13;5062188;28;20039;-79
2022/04/19 02:31:32;;;;;;;14.55;9.90;;;;;;;7.29;60.55;101337.50;5059773;28;20379;-79
2022/04/19 02:33:58;;;;;;;14.10;10.48;;;;;;;7.28;61.36;101341.78;5063529;28;20040;-79
2022/04/19 02:36:25;;;;;;;13.65;10.15;;;;;;;7.27;61.21;101334.06;5059335;28;20035;-79
2022/04/19 02:38:50;;;;;;;15.00;10.57;;;;;;;7.25;60.76;101338.38;5060910;28;20476;-79
2022/04/19 02:41:15;;;;;;;16.65;10.57;;;;;;;7.21;61.61;101339.25;5057947;28;20024;-79
2022/04/19 02:43:41;;;;;;;12.73;10.13;;;;;;;7.14;62.12;101341.88;5053951;28;20021;-79
2022/04/19 02:46:06;;;;;;;13.60;9.20;;;;;;;7.11;64.26;101339.28;5057908;28;20123;-79
2022/04/19 02:48:31;;;;;;;14.07;10.05;;;;;;;7.04;62.54;101342.75;5059541;28;20031;-79
2022/04/19 02:50:56;;;;;;;14.23;10.13;;;;;;;7.04;62.37;101336.72;5056405;28;20353;-79
2022/04/19 02:53:22;;;;;;;16.10;10.85;;;;;;;7.03;61.44;101340.19;5056819;28;20029;-79
2022/04/19 02:55:48;;;;;;;18.20;11.63;;;;;;;6.99;62.67;101337.59;5059705;28;20758;-79
2022/04/19 02:58:13;;;;;;;14.35;10.80;;;;;;;6.97;62.54;101334.16;5054054;28;20037;-79
2022/04/19 03:00:39;;;;;;;15.57;10.48;;;;;;;6.97;62.08;101331.56;5053582;28;20043;-79
2022/04/19 03:03:05;;;;;;;16.02;10.95;;;;;;;6.98;62.45;101333.28;5056295;28;20123;-79
2022/04/19 03:05:30;;;;;;;15.75;10.43;;;;;;;6.99;62.35;101339.34;5057803;28;20476;-79
2022/04/19 03:07:56;;;;;;;14.77;10.85;;;;;;;7.00;62.12;101335.88;5058084;28;20032;-79
2022/04/19 03:10:21;;;;;;;13.95;10.38;;;;;;;7.01;61.79;101331.56;5052601;28;20066;-79
2022/04/19 03:12:47;;;;;;;21.02;11.00;;;;;;;7.00;61.98;101325.53;5056763;28;20751;-79
2022/04/19 03:15:12;;;;;;;16.63;10.90;;;;;;;6.99;61.72;101323.81;5060503;28;20387;-79
2022/04/19 03:17:38;;;;;;;17.42;10.88;;;;;;;6.98;61.82;101330.69;5053024;28;20067;-79
2022/04/19 03:20:07;;;;;;;16.20;9.85;;;;;;;6.98;62.58;101330.69;5056827;28;20435;-79
2022/04/19 03:28:02;;;;;;;14.27;10.07;;;;;;;6.95;60.68;101330.69;5056060;28;20044;-79
2022/04/19 03:30:27;;;;;;;15.30;10.88;;;;;;;6.96;61.74;101329.00;5056063;28;20020;-79
2022/04/19 03:32:54;;;;;;;17.50;10.77;;;;;;;6.93;61.43;101327.25;5057863;28;20727;-79
2022/04/19 03:35:20;;;;;;;14.35;10.27;;;;;;;6.92;61.68;101327.28;5059428;28;20111;-79
2022/04/19 03:37:45;;;;;;;15.57;10.90;;;;;;;6.90;61.56;101323.81;5061233;28;20470;-79
2022/04/19 03:40:11;;;;;;;13.68;10.23;;;;;;;6.86;62.69;101324.69;5059906;28;20020;-79
2022/04/19 03:42:36;;;;;;;14.55;9.57;;;;;;;6.81;63.20;101332.47;5058955;28;20029;-79
2022/04/19 03:45:02;;;;;;;18.48;9.52;;;;;;;6.77;63.03;101329.03;5062457;28;20074;-79
2022/04/19 03:47:27;;;;;;;13.05;9.02;;;;;;;6.74;63.24;101329.03;5061675;28;20035;-79
2022/04/19 03:49:52;;;;;;;13.18;8.98;;;;;;;6.73;63.94;101329.06;5056344;28;20024;-79
2022/04/19 03:52:17;;;;;;;12.93;8.82;;;;;;;6.68;62.77;101327.31;5056520;28;21941;-79
2022/04/19 03:54:43;;;;;;;13.60;9.80;;;;;;;6.66;63.15;101328.19;5059969;28;20063;-79
2022/04/19 03:57:10;;;;;;;13.85;10.07;;;;;;;6.66;63.71;101333.38;5057579;28;20032;-79
2022/04/19 03:59:37;;;;;;;14.80;10.02;;;;;;;6.65;63.53;101336.81;5055666;28;20549;-79
2022/04/19 04:02:03;;;;;;;17.13;9.35;;;;;;;6.64;64.36;101337.69;5061157;28;20390;-79
2022/04/19 04:04:32;;;;;;;16.38;10.05;;;;;;;6.64;63.04;101337.69;5060227;28;20090;-79
2022/04/19 04:06:58;;;;;;;15.02;9.80;;;;;;;6.57;63.27;101323.91;5057937;28;20163;-79
2022/04/19 04:09:24;;;;;;;13.52;9.68;;;;;;;6.56;63.14;101332.53;5058126;28;20103;-79
2022/04/19 04:11:49;;;;;;;14.55;10.18;;;;;;;6.56;63.62;101339.41;5059276;28;20029;-79
2022/04/19 04:14:14;;;;;;;22.42;11.10;;;;;;;6.54;62.85;101331.66;5055398;28;20040;-79
2022/04/19 04:16:40;;;;;;;14.07;9.75;;;;;;;6.55;62.57;101327.34;5061861;28;20037;-79
2022/04/19 04:19:05;;;;;;;14.00;10.20;;;;;;;6.49;63.77;101339.41;5056673;28;20412;-79
2022/04/19 04:21:30;;;;;;;15.23;9.25;;;;;;;6.47;64.35;101330.81;5061232;28;20036;-79
2022/04/19 04:23:56;;;;;;;12.55;9.43;;;;;;;6.45;64.02;101337.69;5058022;28;20036;-79
2022/04/19 04:26:21;;;;;;;15.10;9.88;;;;;;;6.47;63.50;101335.97;5057169;28;20468;-79
2022/04/19 04:28:46;;;;;;;12.82;9.48;;;;;;;6.46;62.66;101335.97;5056993;28;20036;-79
2022/04/19 04:31:11;;;;;;;17.70;9.88;;;;;;;6.40;62.96;101334.25;5058443;28;20037;-78
2022/04/19 04:33:37;;;;;;;14.75;10.00;;;;;;;6.36;62.49;101342.84;5058437;28;20499;-79
2022/04/19 04:36:02;;;;;;;14.00;10.10;;;;;;;6.35;62.82;101342.00;5061058;28;20024;-79
2022/04/19 04:38:28;;;;;;;15.18;10.20;;;;;;;6.34;63.17;101342.88;5061260;28;20032;-78
2022/04/19 04:40:53;;;;;;;15.73;10.32;;;;;;;6.35;62.56;101346.28;5055739;28;20472;-79
2022/04/19 04:43:18;;;;;;;16.08;9.93;;;;;;;6.35;63.36;101349.75;5063902;28;20075;-79
2022/04/19 04:45:43;;;;;;;16.08;9.70;;;;;;;6.32;63.53;101354.91;5058055;28;20028;-78
2022/04/19 04:50:52;;;;;;;17.42;10.00;;;;;;;6.27;64.87;101358.38;5051580;28;20051;-79
2022/04/19 04:53:18;;;;;;;14.77;8.88;;;;;;;6.25;64.77;101355.75;5058453;28;20472;-79
2022/04/19 04:55:43;;;;;;;13.02;8.85;;;;;;;6.26;65.40;101356.66;5051885;28;20031;-79
2022/04/19 04:58:11;;;;;;;13.43;8.23;;;;;;;6.27;64.99;101359.22;5060322;28;20028;-79
2022/04/19 05:00:37;;;;;;;14.48;8.63;;;;;;;6.28;64.87;101355.78;5056532;28;20097;-79
2022/04/19 05:03:02;;;;;;;14.73;9.00;;;;;;;6.27;63.68;101360.97;5056378;28;20426;-79
2022/04/19 05:05:27;;;;;;;14.38;8.98;;;;;;;6.28;63.73;101365.25;5063476;28;20044;-79
2022/04/19 05:07:53;;;;;;;14.52;9.00;;;;;;;6.30;64.83;101358.38;5058786;28;20207;-78
2022/04/19 05:10:18;;;;;;;12.38;8.75;;;;;;;6.30;64.74;101364.41;5057127;28;20554;-79
2022/04/19 05:12:43;;;;;;;13.07;8.65;;;;;;;6.33;64.20;101363.53;5053734;28;21634;-79
2022/04/19 05:15:09;;;;;;;15.80;9.50;;;;;;;6.38;63.65;101367.84;5057812;28;20177;-79
2022/04/19 05:17:34;;;;;;;14.35;8.85;;;;;;;6.43;65.24;101356.63;5052275;28;20043;-78
2022/04/19 05:20:00;;;;;;;14.68;9.15;;;;;;;6.45;64.63;101358.38;5056489;28;20057;-79
2022/04/19 05:22:25;;;;;;;13.95;8.75;;;;;;;6.51;65.48;101357.50;5052257;28;20077;-79
2022/04/19 05:24:51;;;;;;;13.63;9.30;;;;;;;6.57;65.58;101366.97;5048953;28;20033;-79
2022/04/19 05:27:16;;;;;;;14.30;9.43;;;;;;;6.62;65.25;101362.66;5053363;28;20036;-79
2022/04/19 05:29:42;;;;;;;12.85;8.52;;;;;;;6.67;65.48;101364.38;5053628;28;20092;-79
2022/04/19 05:32:07;;;;;;;13.20;8.90;;;;;;;6.74;66.24;101365.25;5059733;28;20491;-78
2022/04/19 05:34:33;;;;;;;13.48;9.02;;;;;;;6.80;65.86;101360.06;5054583;28;20035;-78
2022/04/19 05:36:58;;;;;;;13.35;9.30;;;;;;;6.91;65.67;101360.06;5056623;28;20063;-78
2022/04/19 05:39:23;;;;;;;13.27;8.85;;;;;;;6.98;66.31;101353.13;5057765;28;20036;-78
2022/04/19 05:41:49;;;;;;;13.75;9.60;;;;;;;7.05;65.51;101354.81;5060739;28;20044;-79
2022/04/19 05:44:14;;;;;;;13.32;9.65;;;;;;;7.13;65.40;101354.78;5057893;28;20036;-79
2022/04/19 05:46:39;;;;;;;15.45;10.00;;;;;;;7.20;63.28;101353.03;5059622;28;20039;-77
2022/04/19 05:49:04;;;;;;;14.93;9.60;;;;;;;7.30;62.64;101354.75;5061103;28;20372;-78
2022/04/19 05:51:31;;;;;;;15.60;10.63;;;;;;;7.40;61.05;101351.25;5059368;28;20036;-79
2022/04/19 05:53:56;;;;;;;16.20;10.90;;;;;;;7.51;62.29;101356.38;5063563;28;20402;-78
2022/04/19 05:56:21;;;;;;;15.02;10.43;;;;;;;7.65;59.85;101360.63;5055951;28;20481;-78
2022/04/19 05:58:46;;;;;;;14.50;10.20;;;;;;;7.78;60.05;101356.25;5059491;28;20066;-78
2022/04/19 06:01:12;;;;;;;17.75;11.70;;;;;;;7.93;59.60;101358.75;5057096;28;20094;-79
2022/04/19 06:06:22;;;;;;;15.07;10.15;;;;;;;8.16;59.42;101357.72;5061022;28;20175;-78
2022/04/19 06:08:47;;;;;;;17.05;10.82;;;;;;;8.26;58.40;101358.53;5055063;28;20239;-78
2022/04/19 06:11:12;;;;;;;17.50;10.93;;;;;;;8.36;58.45;101367.94;5063779;28;20373;-78
2022/04/19 06:13:41;;;;;;;19.15;11.43;;;;;;;8.46;58.58;101360.94;5060181;28;20025;-78
2022/04/19 06:16:08;;;;;;;18.90;10.55;;;;;;;8.55;58.89;101360.03;5063786;28;20039;-78
2022/04/19 06:18:34;;;;;;;18.80;11.38;;;;;;;8.65;58.54;101359.94;5062039;28;20433;-79
2022/04/19 06:20:59;;;;;;;19.75;10.85;;;;;;;8.76;59.38;101364.16;5060604;28;20027;-78
2022/04/19 06:23:25;;;;;;;17.70;10.68;;;;;;;8.86;58.31;101360.63;5058823;28;20032;-79
2022/04/19 06:25:50;;;;;;;16.30;10.85;;;;;;;8.99;57.38;101368.25;5057611;28;20063;-79
2022/04/19 06:28:17;;;;;;;16.67;10.93;;;;;;;9.10;56.78;101367.28;5057230;28;20042;-78
2022/04/19 06:30:42;;;;;;;16.08;10.38;;;;;;;9.22;56.21;101366.25;5062815;28;20027;-78
2022/04/19 06:33:07;;;;;;;17.45;10.80;;;;;;;9.33;55.95;101367.88;5061976;28;20111;-78
2022/04/19 06:35:32;;;;;;;16.98;10.27;;;;;;;9.44;56.23;101376.38;5060337;28;20521;-78
2022/04/19 06:37:58;;;;;;;15.95;10.95;;;;;;;9.51;57.07;101374.56;5060033;28;20020;-78
2022/04/19 06:40:23;;;;;;;18.25;11.45;;;;;;;9.59;56.20;101371.88;5062777;28;20024;-78
2022/04/19 06:42:49;;;;;;;16.60;10.88;;;;;;;9.67;56.01;101383.03;5060160;28;20513;-78
2022/04/19 06:45:14;;;;;;;19.58;10.43;;;;;;;9.76;54.91;101377.69;5063931;28;20369;-79
2022/04/19 06:47:40;;;;;;;17.30;10.98;;;;;;;9.85;54.04;101375.00;5060822;28;20043;-79
2022/04/19 06:50:06;;;;;;;17.17;10.70;;;;;;;9.96;54.16;101366.16;5065441;28;20063;-78
2022/04/19 06:52:32;;;;;;;17.90;9.88;;;;;;;10.06;54.02;101378.16;5059584;28;20973;-79
2022/04/19 06:54:57;;;;;;;19.73;10.20;;;;;;;10.16;53.76;101384.94;5066392;28;20420;-78
2022/04/19 06:57:22;;;;;;;17.90;11.20;;;;;;;10.24;53.40;101377.00;5058389;28;20077;-79
2022/04/19 06:59:48;;;;;;;17.55;10.63;;;;;;;10.34;53.93;101388.13;5058498;28;20028;-78
2022/04/19 07:02:14;;;;;;;16.70;10.55;;;;;;;10.42;55.49;101380.22;5059545;28;20801;-78
2022/04/19 07:04:41;;;;;;;17.40;11.05;;;;;;;10.52;54.64;101386.16;5062211;28;20028;-78
2022/04/19 07:07:07;;;;;;;18.38;10.40;;;;;;;10.61;55.50;101388.56;5057707;28;20475;-78
2022/04/19 07:09:32;;;;;;;16.10;10.30;;;;;;;10.70;55.25;101388.44;5066578;28;20027;-79
2022/04/19 07:11:58;;;;;;;17.25;10.50;;;;;;;10.76;53.08;101385.69;5058150;28;20037;-79
2022/04/19 07:14:23;;;;;;;16.65;10.88;;;;;;;10.85;54.27;101386.44;5057250;28;20031;-79
2022/04/19 07:16:49;;;;;;;17.10;10.52;;;;;;;10.93;54.00;101371.56;5061820;28;20380;-79
2022/04/19 07:19:14;;;;;;;16.02;10.18;;;;;;;11.05;55.34;101379.13;5068259;28;20040;-78
2022/04/19 07:27:07;;;;;;;16.30;8.57;;;;;;;11.42;51.38;101390.56;5066861;28;20055;-78
2022/04/19 07:29:32;;;;;;;14.05;8.93;;;;;;;11.54;52.73;101392.06;5069794;28;20460;-79
2022/04/19 07:31:57;;;;;;;15.63;9.38;;;;;;;11.63;51.71;101389.22;5069335;28;20117;-79
2022/04/19 07:34:24;;;;;;;15.63;8.30;;;;;;;11.73;51.00;101384.69;5069363;28;20476;-79
2022/04/19 07:36:49;;;;;;;15.15;8.27;;;;;;;11.85;52.37;101388.78;5069327;28;20020;-79
2022/04/19 07:39:14;;;;;;;12.70;7.95;;;;;;;11.95;51.54;101394.66;5071076;28;20028;-79
2022/04/19 07:41:45;;;;;;;13.82;7.82;;;;;;;12.04;51.84;101394.44;5070372;28;20040;-79
2022/04/19 07:44:10;;;;;;;12.73;7.07;;;;;;;12.14;51.43;101400.31;5069837;28;20036;-78
2022/04/19 07:46:35;;;;;;;13.07;7.82;;;;;;;12.21;49.85;101395.84;5069770;28;20036;-79
2022/04/19 07:49:02;;;;;;;12.07;7.28;;;;;;;12.28;50.57;101403.47;5067195;28;20040;-78
2022/04/19 07:51:28;;;;;;;11.95;7.22;;;;;;;12.35;49.28;101400.72;5067846;28;20024;-79
2022/04/19 07:53:54;;;;;;;11.43;6.93;;;;;;;12.38;50.45;101391.03;5073744;28;20029;-79
2022/04/19 07:56:19;;;;;;;13.52;7.43;;;;;;;12.47;52.38;101396.94;5072517;28;20035;-79
2022/04/19 07:58:48;;;;;;;12.23;7.35;;;;;;;12.54;51.27;101394.16;5072667;28;20031;-79
2022/04/19 08:01:18;;;;;;;12.95;6.97;;;;;;;12.62;48.95;101391.34;5071706;28;20024;-79
2022/04/19 08:03:43;;;;;;;11.90;6.63;;;;;;;12.69;47.76;101392.03;5067932;28;20033;-79
2022/04/19 08:06:09;;;;;;;12.38;6.75;;;;;;;12.77;47.43;101394.44;5067533;28;20525;-78
2022/04/19 08:08:34;;;;;;;11.02;6.43;;;;;;;12.83;49.27;101389.06;5071417;28;20035;-79
2022/04/19 08:11:00;;;;;;;11.40;6.05;;;;;;;12.89;46.85;101389.75;5075651;28;20036;-79
2022/04/19 08:13:25;;;;;;;10.80;5.65;;;;;;;12.96;48.66;101397.44;5068659;28;20351;-79
2022/04/19 08:15:51;;;;;;;12.13;6.10;;;;;;;13.00;46.88;101399.06;5070002;28;20037;-79
2022/04/19 08:18:18;;;;;;;9.52;5.30;;;;;;;13.04;46.61;101395.47;5070381;28;20028;-79
2022/04/19 08:20:44;;;;;;;9.98;5.82;;;;;;;13.10;46.50;101400.53;5071076;28;20048;-79
2022/04/19 08:23:11;;;;;;;10.25;5.45;;;;;;;13.16;45.45;101391.66;5071354;28;20492;-79
2022/04/19 08:25:37;;;;;;;11.02;5.70;;;;;;;13.21;47.14;101392.41;5065086;28;20436;-79
2022/04/19 08:28:04;;;;;;;9.43;4.93;;;;;;;13.29;45.60;101386.97;5067369;28;20020;-79
2022/04/19 08:30:29;;;;;;;10.13;5.28;;;;;;;13.35;47.01;101381.53;5067355;28;20025;-78
2022/04/19 08:32:55;;;;;;;9.80;5.25;;;;;;;13.43;44.54;101383.97;5069809;28;20039;-78
2022/04/19 08:35:20;;;;;;;8.13;4.50;;;;;;;13.47;43.79;101381.25;5066106;28;20032;-78
2022/04/19 08:37:46;;;;;;;9.48;4.70;;;;;;;13.51;45.44;101380.22;5062420;28;20040;-78
2022/04/19 08:40:13;;;;;;;8.27;4.70;;;;;;;13.59;46.72;101372.16;5065254;28;21928;-78
2022/04/19 08:42:40;;;;;;;9.88;4.43;;;;;;;13.66;46.45;101375.47;5067316;28;20068;-78
2022/04/19 08:45:08;;;;;;;7.30;4.20;;;;;;;13.71;46.82;101380.56;5063417;28;20024;-78
2022/04/19 08:47:41;;;;;;;7.22;3.75;;;;;;;13.74;43.96;101377.84;5066215;28;20128;-78
2022/04/19 08:50:10;;;;;;;8.80;4.72;;;;;;;13.77;43.96;101378.59;5057796;28;20135;-79
2022/04/19 08:52:35;;;;;;;7.57;3.97;;;;;;;13.80;43.79;101378.50;5062240;28;20107;-78
2022/04/19 08:57:45;;;;;;;7.50;3.72;;;;;;;13.93;43.61;101373.72;5072553;28;20506;-78
2022/04/19 09:00:11;;;;;;;8.00;3.83;;;;;;;14.00;44.34;101373.56;5064499;28;20111;-77
2022/04/19 09:02:39;;;;;;;8.40;3.60;;;;;;;14.06;44.66;101378.59;5069124;28;20035;-77
2022/04/19 09:05:26;;;;;;;6.75;3.45;;;;;;;14.13;43.72;101379.25;5065978;28;20028;-79
2022/04/19 09:07:53;;;;;;;6.55;3.60;;;;;;;14.19;41.72;101379.91;5064383;28;20039;-78
2022/04/19 09:10:29;;;;;;;7.57;3.60;;;;;;;14.26;44.69;101376.19;5071697;28;20464;-78
2022/04/19 09:12:57;;;;;;;7.47;4.10;;;;;;;14.32;43.46;101377.75;5068691;28;20024;-79
2022/04/19 09:15:22;;;;;;;5.93;3.40;;;;;;;14.36;41.95;101376.72;5069936;28;20024;-79
2022/04/19 09:17:49;;;;;;;7.35;3.70;;;;;;;14.41;43.36;101376.59;5070190;28;20484;-79
2022/04/19 09:20:18;;;;;;;6.15;3.35;;;;;;;14.45;41.10;101374.72;5065698;28;20552;-78
2022/04/19 09:22:44;;;;;;;5.68;2.97;;;;;;;14.50;43.18;101380.69;5061196;28;20024;-78
2022/04/19 09:25:25;;;;;;;5.22;2.72;;;;;;;14.50;40.91;101364.97;5057896;28;20744;-79
2022/04/19 09:27:51;;;;;;;4.28;2.40;;;;;;;14.53;41.53;101370.94;5062390;28;20104;-79
2022/04/19 09:30:22;;;;;;;6.85;2.75;;;;;;;14.57;41.65;101366.44;5070492;28;20025;-78
2022/04/19 09:33:00;;;;;;;;;;;;;;;14.63;42.27;101360.16;5069540;28;20757;-79
2022/04/19 09:35:33;;;;;;;8.93;2.85;;;;;;;14.71;42.22;101355.53;5070611;28;19913;-79
2022/04/19 09:37:58;;;;;;;7.03;3.30;;;;;;;14.79;42.83;101356.13;5068220;28;20028;-79
2022/04/19 09:40:28;;;;;;;5.22;3.10;;;;;;;14.86;41.48;101356.75;5071838;28;20086;-79
2022/04/19 09:42:54;;;;;;;5.57;3.33;;;;;;;14.86;41.52;101362.84;5068178;28;20038;-79
2022/04/19 09:45:20;;;;;;;7.13;3.33;;;;;;;14.84;40.67;101358.59;5062246;28;20040;-79
2022/04/19 09:47:52;;;;;;;5.60;3.30;;;;;;;14.83;42.05;101351.66;5070463;28;20119;-79
2022/04/19 09:50:18;;;;;;;6.35;3.60;;;;;;;14.84;42.63;101362.06;5062924;28;20039;-79
2022/04/19 09:52:48;;;;;;;6.20;3.90;;;;;;;14.87;42.22;101358.47;5064518;28;20106;-79
2022/04/19 09:55:15;;;;;;;5.95;3.30;;;;;;;14.90;43.37;101353.13;5067731;28;20403;-79
2022/04/19 09:57:41;;;;;;;5.95;3.63;;;;;;;14.96;43.00;101355.53;5063514;28;20024;-79
2022/04/19 10:00:14;;;;;;;7.35;4.07;;;;;;;15.02;42.16;101350.06;5061469;28;20464;-81
2022/04/19 10:08:11;;;;;;;8.02;3.47;;;;;;;15.03;43.61;101349.13;5069670;28;20115;-79
2022/04/19 10:10:37;;;;;;;6.22;3.30;;;;;;;15.07;42.36;101346.41;5064710;28;20029;-79
2022/04/19 10:13:03;;;;;;;8.15;3.70;;;;;;;15.09;41.83;101341.97;5063582;28;20111;-78
2022/04/19 10:15:31;;;;;;;6.32;3.30;;;;;;;15.12;41.93;101340.09;5063348;28;20124;-78
2022/04/19 10:17:57;;;;;;;7.03;3.30;;;;;;;15.16;43.63;101338.22;5067689;28;20025;-78
2022/04/19 10:20:31;;;;;;;7.53;3.55;;;;;;;15.21;41.25;101333.66;5064092;28;22434;-79
2022/04/19 10:23:03;;;;;;;6.75;3.67;;;;;;;15.25;40.65;101337.88;5065218;28;20460;-79
2022/04/19 10:25:45;;;;;;;;;;;;;;;15.27;42.02;101329.97;5056972;28;20025;-79
2022/04/19 10:28:12;;;;;;;5.43;3.03;;;;;;;15.33;40.50;101337.59;5067654;28;19912;-77
2022/04/19 10:30:38;;;;;;;5.95;3.50;;;;;;;15.36;38.93;101342.72;5069186;28;20029;-78
2022/04/19 10:33:42;;;;;;;7.32;3.65;;;;;;;15.40;39.54;101335.56;5061422;28;20511;-78
2022/04/19 10:36:17;;;;;;;6.50;3.38;;;;;;;15.41;40.24;101334.66;5059288;28;20125;-79
2022/04/19 10:38:44;;;;;;;5.68;3.30;;;;;;;15.45;40.46;101336.25;5062641;28;20494;-80
2022/04/19 10:41:10;;;;;;;6.50;3.38;;;;;;;15.50;40.83;101338.72;5065796;28;20665;-79
2022/04/19 10:43:35;;;;;;;7.50;3.53;;;;;;;15.53;39.86;101331.59;5074496;28;20479;-79
2022/04/19 10:46:20;;;;;;;6.97;3.70;;;;;;;15.56;40.25;101333.22;5062768;28;20029;-78
2022/04/19 10:49:22;;;;;;;8.25;3.53;;;;;;;15.61;40.88;101326.88;5063553;28;20098;-79
2022/04/19 10:51:47;;;;;;;;;;;;;;;15.66;41.02;101321.44;5066186;28;20091;-79
2022/04/19 10:54:15;;;;;;;6.22;3.10;;;;;;;15.70;39.18;101324.84;5066912;28;19912;-79
2022/04/19 11:00:01;;;;;;;7.22;3.65;;;;;;;15.75;38.33;101325.47;5063564;28;20040;-79
2022/04/19 11:02:36;;;;;;;6.53;3.40;;;;;;;15.77;40.47;101319.28;5063140;28;20046;-78
2022/04/19 11:05:03;;;;;;;6.93;3.65;;;;;;;15.77;38.65;101311.41;5066978;28;20032;-78
2022/04/19 11:07:42;;;;;;;6.15;3.55;;;;;;;15.80;40.20;101318.28;5068158;28;20020;-78
2022/04/19 11:10:07;;;;;;;6.78;3.63;;;;;;;15.83;39.13;101312.94;5061716;28;20051;-78
2022/04/19 11:12:58;;;;;;;8.20;3.80;;;;;;;15.92;39.85;101306.47;5062703;28;20024;-79
2022/04/19 11:15:37;;;;;;;9.65;3.75;;;;;;;15.96;38.95;101302.81;5069436;28;20040;-78
2022/04/19 11:18:22;;;;;;;7.20;3.80;;;;;;;16.04;38.92;101305.97;5070412;28;20093;-79
2022/04/19 11:20:47;;;;;;;6.43;3.15;;;;;;;16.13;38.89;101307.38;5074536;28;20116;-78
2022/04/19 11:23:18;;;;;;;7.25;3.40;;;;;;;16.23;39.13;101302.59;5071150;28;20052;-79
2022/04/19 11:25:45;;;;;;;7.30;3.28;;;;;;;16.33;39.04;101293.38;5071778;28;20479;-79
2022/04/19 11:28:10;;;;;;;6.75;3.42;;;;;;;16.41;38.43;101306.19;5073549;28;20032;-79
2022/04/19 11:30:56;;;;;;;7.00;3.38;;;;;;;16.44;38.25;101295.56;5074488;28;20098;-79
2022/04/19 11:33:23;;;;;;;8.68;3.55;;;;;;;16.49;38.40;101292.72;5070213;28;20105;-79
2022/04/19 11:36:02;;;;;;;6.50;3.13;;;;;;;16.61;38.75;101291.34;5067531;28;20058;-82
2022/04/19 11:38:33;;;;;;;6.53;3.40;;;;;;;16.69;37.28;101284.81;5059863;28;20031;-79
2022/04/19 11:46:44;;;;;;;7.75;3.85;;;;;;;16.98;35.75;101282.72;5071459;28;20051;-79
2022/04/19 11:49:19;;;;;;;6.55;3.33;;;;;;;17.08;38.05;101291.00;5069742;28;20111;-79
2022/04/19 11:51:50;;;;;;;6.55;3.33;;;;;;;17.13;38.47;101281.13;5069945;28;20032;-80
2022/04/19 11:54:33;;;;;;;6.72;3.20;;;;;;;17.16;38.99;101287.19;5072607;28;20016;-78